Time;durP1;ratioP1;P1;durP2;ratioP2;P2;SDS_P1;SDS_P2;PMS_P1;PMS_P2;Temp;Humidity;BMP_temperature;BMP_pressure;BME280_temperature;BME280_humidity;BME280_pressure;Samples;Min_cycle;Max_cycle;Signal;HPM_P1;HPM_P2
2022/10/23 00:01:00;;;;;;;11.50;7.60;;;12.40;99.90;;;;;;5053531;28;20202;-81
2022/10/23 00:03:27;;;;;;;9.03;7.93;;;12.40;99.90;;;;;;5044822;28;20289;-80
2022/10/23 00:05:54;;;;;;;12.17;8.77;;;12.30;99.90;;;;;;5034153;28;20254;-80
2022/10/23 00:08:21;;;;;;;11.07;8.30;;;12.30;99.90;;;;;;5043277;28;20229;-81
2022/10/23 00:10:48;;;;;;;9.80;8.00;;;12.30;99.90;;;;;;5054601;28;20261;-80
2022/10/23 00:13:14;;;;;;;8.80;7.83;;;12.30;99.90;;;;;;5054299;28;20202;-79
2022/10/23 00:15:43;;;;;;;9.90;8.07;;;12.30;99.90;;;;;;5049819;28;20236;-80
2022/10/23 00:18:09;;;;;;;12.93;8.47;;;12.30;99.90;;;;;;5034739;28;20302;-81
2022/10/23 00:20:36;;;;;;;9.07;7.80;;;12.20;99.90;;;;;;5034548;28;20290;-81
2022/10/23 00:23:03;;;;;;;10.50;7.90;;;12.20;99.90;;;;;;5039717;28;20206;-81
2022/10/23 00:25:31;;;;;;;12.60;8.47;;;12.20;99.90;;;;;;5054231;28;20312;-80
2022/10/23 00:27:58;;;;;;;11.63;7.70;;;12.20;99.90;;;;;;5045759;28;20195;-81
2022/10/23 00:30:25;;;;;;;11.73;8.97;;;12.20;99.90;;;;;;5034369;28;20458;-78
2022/10/23 00:32:53;;;;;;;10.40;7.87;;;12.20;99.90;;;;;;5033884;28;20203;-81
2022/10/23 00:35:20;;;;;;;11.23;8.87;;;12.20;99.90;;;;;;5042344;28;20213;-81
2022/10/23 00:37:47;;;;;;;9.57;7.63;;;12.20;99.90;;;;;;5054402;28;20248;-81
2022/10/23 00:40:14;;;;;;;12.93;9.57;;;12.30;99.90;;;;;;5053370;28;20202;-81
2022/10/23 00:42:40;;;;;;;13.57;9.37;;;12.30;99.90;;;;;;5032918;28;20214;-81
2022/10/23 00:45:23;;;;;;;9.63;8.67;;;12.30;99.90;;;;;;5050504;28;20323;-81
2022/10/23 00:47:50;;;;;;;10.37;8.80;;;12.30;99.90;;;;;;5054320;28;20197;-82
2022/10/23 00:50:21;;;;;;;12.43;8.77;;;12.30;99.90;;;;;;5052575;28;20202;-80
2022/10/23 00:52:50;;;;;;;11.03;8.93;;;12.30;99.90;;;;;;5054019;28;20201;-81
2022/10/23 00:55:20;;;;;;;11.20;8.23;;;12.30;99.90;;;;;;5051710;28;20252;-82
2022/10/23 00:57:49;;;;;;;10.33;8.10;;;12.30;99.90;;;;;;5033358;28;20207;-81
2022/10/23 01:00:19;;;;;;;11.40;9.00;;;12.30;99.90;;;;;;5041411;28;20205;-80
2022/10/23 01:02:46;;;;;;;11.77;8.10;;;12.30;99.90;;;;;;5053055;28;20198;-81
2022/10/23 01:05:13;;;;;;;10.27;8.10;;;12.30;99.90;;;;;;5038397;28;20241;-80
2022/10/23 01:07:50;;;;;;;10.80;8.40;;;12.30;99.90;;;;;;5033509;28;20290;-80
2022/10/23 01:10:26;;;;;;;11.37;8.30;;;12.20;99.90;;;;;;5032920;28;20209;-79
2022/10/23 01:13:00;;;;;;;11.00;8.10;;;12.20;99.90;;;;;;5034286;28;20210;-83
2022/10/23 01:15:32;;;;;;;11.27;8.27;;;12.20;99.90;;;;;;5035031;28;20198;-84
2022/10/23 01:18:05;;;;;;;12.57;9.53;;;12.20;99.90;;;;;;5034315;28;20206;-83
2022/10/23 01:20:40;;;;;;;12.33;8.63;;;12.20;99.90;;;;;;5045894;28;20300;-82
2022/10/23 01:23:29;;;;;;;9.40;8.40;;;12.10;99.90;;;;;;5052544;28;20593;-80
2022/10/23 01:26:08;;;;;;;9.60;8.43;;;12.10;99.90;;;;;;5053735;28;20232;-79
2022/10/23 01:28:44;;;;;;;13.27;9.80;;;12.10;99.90;;;;;;5036629;28;20210;-81
2022/10/23 01:31:16;;;;;;;13.47;8.73;;;12.10;99.90;;;;;;5032927;28;20202;-81
2022/10/23 01:33:47;;;;;;;9.30;8.40;;;12.10;99.90;;;;;;5032596;28;20591;-79
2022/10/23 01:36:16;;;;;;;11.07;8.90;;;12.10;99.90;;;;;;5033032;28;20286;-80
2022/10/23 01:38:48;;;;;;;11.17;8.97;;;12.10;99.90;;;;;;5033319;28;20705;-80
2022/10/23 01:41:18;;;;;;;10.83;8.73;;;12.10;99.90;;;;;;5033414;28;20221;-80
2022/10/23 01:43:51;;;;;;;10.83;8.50;;;12.10;99.90;;;;;;5033415;28;20202;-81
2022/10/23 01:46:18;;;;;;;11.40;8.43;;;12.00;99.90;;;;;;5047981;28;20236;-80
2022/10/23 01:48:50;;;;;;;12.13;8.93;;;12.00;99.90;;;;;;5053582;28;20660;-80
2022/10/23 01:51:18;;;;;;;11.33;8.83;;;12.00;99.90;;;;;;5051038;28;20190;-83
2022/10/23 01:53:47;;;;;;;9.63;8.53;;;12.00;99.90;;;;;;5034275;28;20203;-83
2022/10/23 01:56:19;;;;;;;10.50;8.53;;;11.90;99.90;;;;;;5033816;28;20229;-81
2022/10/23 01:58:52;;;;;;;9.07;8.17;;;11.90;99.90;;;;;;5032676;28;20214;-81
2022/10/23 02:01:21;;;;;;;9.13;7.87;;;11.90;99.90;;;;;;5033124;28;20749;-83
2022/10/23 02:03:50;;;;;;;9.40;8.47;;;11.90;99.90;;;;;;5033275;28;20191;-83
2022/10/23 02:06:17;;;;;;;12.00;8.50;;;11.90;99.90;;;;;;5032896;28;20219;-84
2022/10/23 02:08:44;;;;;;;11.17;8.10;;;11.90;99.90;;;;;;5034740;28;20191;-82
2022/10/23 02:11:14;;;;;;;12.67;8.93;;;11.90;99.90;;;;;;5044231;28;20478;-84
2022/10/23 02:13:48;;;;;;;10.60;8.80;;;11.90;99.90;;;;;;5052941;28;20198;-84
2022/10/23 02:16:23;;;;;;;11.87;9.23;;;11.90;99.90;;;;;;5054575;28;20197;-83
2022/10/23 02:18:56;;;;;;;9.63;8.57;;;12.00;99.90;;;;;;5053922;28;20216;-84
2022/10/23 02:21:30;;;;;;;9.87;8.67;;;12.00;99.90;;;;;;5053220;28;20208;-83
2022/10/23 02:24:02;;;;;;;14.17;9.80;;;12.00;99.90;;;;;;5053480;28;20200;-84
2022/10/23 02:26:34;;;;;;;12.40;9.10;;;12.00;99.90;;;;;;5054035;28;20212;-83
2022/10/23 02:29:07;;;;;;;12.53;9.73;;;12.00;99.90;;;;;;5051027;28;20293;-82
2022/10/23 02:31:36;;;;;;;11.57;9.40;;;12.10;99.90;;;;;;5034255;28;20198;-84
2022/10/23 02:34:03;;;;;;;11.93;8.87;;;12.10;99.90;;;;;;5033774;28;20202;-83
2022/10/23 02:36:30;;;;;;;14.53;9.87;;;12.10;99.90;;;;;;5016573;28;20234;-83
2022/10/23 02:38:57;;;;;;;12.00;8.83;;;12.10;99.90;;;;;;5047181;28;20621;-83
2022/10/23 02:41:41;;;;;;;11.10;8.57;;;12.10;99.90;;;;;;5053680;28;20204;-84
2022/10/23 02:44:23;;;;;;;12.47;9.43;;;12.10;99.90;;;;;;5049273;28;20201;-82
2022/10/23 02:47:01;;;;;;;14.33;10.23;;;12.20;99.90;;;;;;5037709;28;20233;-83
2022/10/23 02:49:37;;;;;;;12.27;9.53;;;12.20;99.90;;;;;;5039469;28;20230;-83
2022/10/23 02:52:11;;;;;;;9.97;8.93;;;12.20;99.90;;;;;;5057675;28;20203;-83
2022/10/23 02:54:59;;;;;;;10.33;8.57;;;12.30;99.90;;;;;;5055965;28;20354;-83
2022/10/23 02:57:31;;;;;;;12.47;8.93;;;12.30;99.90;;;;;;5055466;28;20610;-81
2022/10/23 03:00:05;;;;;;;12.87;9.30;;;12.30;99.90;;;;;;5056503;28;20585;-80
2022/10/23 03:02:38;;;;;;;11.70;8.80;;;12.30;99.90;;;;;;5037938;28;20289;-81
2022/10/23 03:05:10;;;;;;;9.57;7.90;;;12.30;99.90;;;;;;5035924;28;20202;-81
2022/10/23 03:07:38;;;;;;;10.00;8.07;;;12.40;99.90;;;;;;5035967;28;20672;-81
2022/10/23 03:10:06;;;;;;;10.30;8.00;;;12.40;99.90;;;;;;5035371;28;20244;-81
2022/10/23 03:12:33;;;;;;;8.67;7.73;;;12.40;99.90;;;;;;5035958;28;20689;-81
2022/10/23 03:15:00;;;;;;;11.60;8.10;;;12.30;99.90;;;;;;5035745;28;20207;-82
2022/10/23 03:17:27;;;;;;;10.07;8.10;;;12.30;99.90;;;;;;5036836;28;20199;-80
2022/10/23 03:19:56;;;;;;;8.57;7.50;;;12.30;99.90;;;;;;5036094;28;20233;-79
2022/10/23 03:22:23;;;;;;;11.07;8.40;;;12.30;99.90;;;;;;5035662;28;20201;-80
2022/10/23 03:24:50;;;;;;;10.70;8.50;;;12.30;99.90;;;;;;5035485;28;20217;-83
2022/10/23 03:27:16;;;;;;;9.43;8.10;;;12.20;99.90;;;;;;5035277;28;20218;-80
2022/10/23 03:29:43;;;;;;;9.93;8.33;;;12.20;99.90;;;;;;5035206;28;20285;-80
2022/10/23 03:32:10;;;;;;;10.17;8.30;;;12.20;99.90;;;;;;5041542;28;20202;-81
2022/10/23 03:34:37;;;;;;;12.00;9.10;;;12.20;99.90;;;;;;5055813;28;20483;-81
2022/10/23 03:37:05;;;;;;;11.00;9.50;;;12.20;99.90;;;;;;5036517;28;20238;-79
2022/10/23 03:39:32;;;;;;;9.73;8.73;;;12.10;99.90;;;;;;5035277;28;20607;-81
2022/10/23 03:41:59;;;;;;;14.70;9.47;;;12.20;99.90;;;;;;5035287;28;20625;-81
2022/10/23 03:44:26;;;;;;;10.63;9.33;;;12.10;99.90;;;;;;5034145;28;20205;-79
2022/10/23 03:46:53;;;;;;;13.67;10.47;;;12.10;99.90;;;;;;5034920;28;20525;-80
2022/10/23 03:49:20;;;;;;;18.47;11.77;;;12.10;99.90;;;;;;5051531;28;20202;-82
2022/10/23 03:51:50;;;;;;;20.27;11.63;;;12.20;99.90;;;;;;5053793;28;20317;-81
2022/10/23 03:54:20;;;;;;;18.13;12.30;;;12.20;99.90;;;;;;5047066;28;20231;-82
2022/10/23 03:56:47;;;;;;;14.03;10.83;;;12.20;99.90;;;;;;5033888;28;20210;-80
2022/10/23 03:59:14;;;;;;;19.70;11.90;;;12.20;99.90;;;;;;5033771;28;20241;-80
2022/10/23 04:01:41;;;;;;;18.30;12.00;;;12.30;99.90;;;;;;5034959;28;20289;-80
2022/10/23 04:04:08;;;;;;;13.70;11.40;;;12.20;99.90;;;;;;5049340;28;20228;-81
2022/10/23 04:06:35;;;;;;;17.50;11.40;;;12.30;99.90;;;;;;5054324;28;20221;-80
2022/10/23 04:09:02;;;;;;;15.77;11.03;;;12.30;99.90;;;;;;5044503;28;20716;-80
2022/10/23 04:11:31;;;;;;;14.93;10.50;;;12.30;99.90;;;;;;5035085;28;20695;-80
2022/10/23 04:13:58;;;;;;;14.90;11.00;;;12.30;99.90;;;;;;5035352;28;20211;-81
2022/10/23 04:16:26;;;;;;;16.87;11.37;;;12.30;99.90;;;;;;5034844;28;20226;-80
2022/10/23 04:18:53;;;;;;;17.63;11.80;;;12.30;99.90;;;;;;5033909;28;20207;-81
2022/10/23 04:21:20;;;;;;;15.10;10.07;;;12.30;99.90;;;;;;5034616;28;20500;-82
2022/10/23 04:23:47;;;;;;;15.50;11.90;;;12.30;99.90;;;;;;5037449;28;20201;-80
2022/10/23 04:26:14;;;;;;;16.90;11.80;;;12.30;99.90;;;;;;5053413;28;20224;-82
2022/10/23 04:28:42;;;;;;;15.53;11.03;;;12.30;99.90;;;;;;5039833;28;20207;-80
2022/10/23 04:31:09;;;;;;;12.87;9.70;;;12.30;99.90;;;;;;5034671;28;20571;-80
2022/10/23 04:33:36;;;;;;;14.83;10.80;;;12.30;99.90;;;;;;5033875;28;20252;-81
2022/10/23 04:36:03;;;;;;;14.80;10.80;;;12.30;99.90;;;;;;5033861;28;20216;-80
2022/10/23 04:38:29;;;;;;;16.43;10.80;;;12.20;99.90;;;;;;5033995;28;20282;-80
2022/10/23 04:40:56;;;;;;;19.67;12.47;;;12.30;99.90;;;;;;5046850;28;20252;-82
2022/10/23 04:43:23;;;;;;;16.80;11.83;;;12.30;99.90;;;;;;5050965;28;20338;-80
2022/10/23 04:45:51;;;;;;;15.13;10.83;;;12.30;99.90;;;;;;5034159;28;20195;-80
2022/10/23 04:48:18;;;;;;;14.67;11.40;;;12.30;99.90;;;;;;5041319;28;20630;-81
2022/10/23 04:50:55;;;;;;;14.40;9.73;;;12.30;99.90;;;;;;5053959;28;20206;-82
2022/10/23 04:53:22;;;;;;;14.53;10.63;;;12.30;99.90;;;;;;5053786;28;20201;-80
2022/10/23 04:55:50;;;;;;;15.33;10.00;;;12.30;99.90;;;;;;5053865;28;20254;-82
2022/10/23 04:58:17;;;;;;;16.17;10.00;;;12.30;99.90;;;;;;5038007;28;20195;-82
2022/10/23 05:00:44;;;;;;;17.67;11.10;;;12.20;99.90;;;;;;5033978;28;20515;-80
2022/10/23 05:03:12;;;;;;;13.43;9.30;;;12.30;99.90;;;;;;5033327;28;20568;-81
2022/10/23 05:05:39;;;;;;;10.60;9.00;;;12.20;99.90;;;;;;5033798;28;20203;-81
2022/10/23 05:08:06;;;;;;;14.17;9.83;;;12.30;99.90;;;;;;5032808;28;20229;-82
2022/10/23 05:10:33;;;;;;;12.23;8.73;;;12.30;99.90;;;;;;5041297;28;20656;-79
2022/10/23 05:13:00;;;;;;;15.37;9.53;;;12.20;99.90;;;;;;5053745;28;20195;-82
2022/10/23 05:15:27;;;;;;;16.13;10.60;;;12.20;99.90;;;;;;5039000;28;20247;-82
2022/10/23 05:17:57;;;;;;;15.50;10.87;;;12.20;99.90;;;;;;5033959;28;20195;-82
2022/10/23 05:20:30;;;;;;;15.63;9.90;;;12.20;99.90;;;;;;5033782;28;20226;-79
2022/10/23 05:22:58;;;;;;;11.63;10.40;;;12.30;99.90;;;;;;5033047;28;20633;-80
2022/10/23 05:25:25;;;;;;;12.97;10.07;;;12.30;99.90;;;;;;5033385;28;20230;-81
2022/10/23 05:27:52;;;;;;;15.97;10.83;;;12.30;99.90;;;;;;5033279;28;20229;-80
2022/10/23 05:30:19;;;;;;;13.47;10.40;;;12.20;99.90;;;;;;5033146;28;20209;-81
2022/10/23 05:32:46;;;;;;;17.00;10.77;;;12.30;99.90;;;;;;5033243;28;20209;-82
2022/10/23 05:35:18;;;;;;;17.30;10.93;;;12.30;99.90;;;;;;5032944;28;20293;-80
2022/10/23 05:37:48;;;;;;;15.77;10.60;;;12.20;99.90;;;;;;5033063;28;20235;-80
2022/10/23 05:40:15;;;;;;;11.23;10.00;;;12.30;99.90;;;;;;5034261;28;20290;-81
2022/10/23 05:42:42;;;;;;;15.90;11.20;;;12.30;99.90;;;;;;5033233;28;20206;-83
2022/10/23 05:45:10;;;;;;;16.60;10.77;;;12.20;99.90;;;;;;5033895;28;20579;-84
2022/10/23 05:47:37;;;;;;;17.97;10.33;;;12.20;99.90;;;;;;5034310;28;20631;-84
2022/10/23 05:50:04;;;;;;;13.63;10.07;;;12.30;99.90;;;;;;5053085;28;20297;-85
2022/10/23 05:52:34;;;;;;;13.87;10.27;;;12.30;99.90;;;;;;5052757;28;20609;-84
2022/10/23 05:55:02;;;;;;;11.90;9.67;;;12.20;99.90;;;;;;5054821;28;20225;-82
2022/10/23 05:57:32;;;;;;;18.87;10.57;;;12.30;99.90;;;;;;5052793;28;20313;-86
2022/10/23 05:59:59;;;;;;;13.47;10.30;;;12.30;99.90;;;;;;5052868;28;20205;-81
2022/10/23 06:02:26;;;;;;;18.97;11.53;;;12.30;99.90;;;;;;5052722;28;20213;-81
2022/10/23 06:04:53;;;;;;;19.70;11.93;;;12.30;99.90;;;;;;5040070;28;20202;-81
2022/10/23 06:07:23;;;;;;;15.80;11.53;;;12.30;99.90;;;;;;5039918;28;20230;-81
2022/10/23 06:09:50;;;;;;;14.80;10.53;;;12.30;99.90;;;;;;5032700;28;20494;-82
2022/10/23 06:12:18;;;;;;;13.13;10.57;;;12.30;99.90;;;;;;5032933;28;20210;-81
2022/10/23 06:14:45;;;;;;;13.27;9.60;;;12.30;99.90;;;;;;5032303;28;20674;-80
2022/10/23 06:17:12;;;;;;;15.30;11.10;;;12.30;99.90;;;;;;5032555;28;20194;-82
2022/10/23 06:19:39;;;;;;;18.90;11.10;;;12.30;99.90;;;;;;5031569;28;20301;-80
2022/10/23 06:22:06;;;;;;;19.13;10.90;;;12.40;99.90;;;;;;5033929;28;20218;-84
2022/10/23 06:24:32;;;;;;;18.40;10.90;;;12.40;99.90;;;;;;5034531;28;20203;-84
2022/10/23 06:27:00;;;;;;;17.40;11.23;;;12.40;99.90;;;;;;5050224;28;20230;-84
2022/10/23 06:29:30;;;;;;;15.00;10.27;;;12.40;99.90;;;;;;5053878;28;20194;-85
2022/10/23 06:31:57;;;;;;;15.13;10.57;;;12.40;99.90;;;;;;5054183;28;20221;-83
2022/10/23 06:34:23;;;;;;;16.37;11.63;;;12.40;99.90;;;;;;5034227;28;20211;-85
2022/10/23 06:36:50;;;;;;;15.73;10.63;;;12.40;99.90;;;;;;5033275;28;20269;-85
2022/10/23 06:39:17;;;;;;;17.23;10.33;;;12.50;99.90;;;;;;5042234;28;20655;-83
2022/10/23 06:44:10;;;;;;;16.40;10.07;;;12.50;99.90;;;;;;5040635;22;20701;-85
2022/10/23 06:46:38;;;;;;;16.33;9.83;;;12.50;99.90;;;;;;5031548;28;20308;-81
2022/10/23 06:49:05;;;;;;;9.50;8.40;;;12.50;99.90;;;;;;5033021;28;20207;-82
2022/10/23 06:51:33;;;;;;;16.63;10.67;;;12.50;99.90;;;;;;5030984;28;20202;-81
2022/10/23 06:54:00;;;;;;;12.83;8.30;;;12.50;99.90;;;;;;5024339;28;20226;-83
2022/10/23 06:56:28;;;;;;;13.80;9.03;;;12.50;99.90;;;;;;5010761;28;20310;-83
2022/10/23 06:58:55;;;;;;;10.10;8.57;;;12.50;99.90;;;;;;5012185;28;20195;-83
2022/10/23 07:01:22;;;;;;;11.93;8.37;;;12.50;99.90;;;;;;5014964;28;20210;-82
2022/10/23 07:03:50;;;;;;;9.90;7.80;;;12.50;99.90;;;;;;5013058;28;20199;-82
2022/10/23 07:06:17;;;;;;;11.63;7.80;;;12.60;99.90;;;;;;5012778;28;20502;-83
2022/10/23 07:08:44;;;;;;;15.57;9.03;;;12.60;99.90;;;;;;5012648;28;20642;-86
2022/10/23 07:11:14;;;;;;;12.83;8.50;;;12.60;99.90;;;;;;5005900;28;20261;-85
2022/10/23 07:13:41;;;;;;;13.17;8.30;;;12.60;99.90;;;;;;5013678;28;20203;-83
2022/10/23 07:16:13;;;;;;;12.93;7.60;;;12.60;99.90;;;;;;5011725;28;20589;-85
2022/10/23 07:18:40;;;;;;;9.83;7.40;;;12.70;99.90;;;;;;5012805;28;20591;-84
2022/10/23 07:21:09;;;;;;;14.53;8.20;;;12.70;99.90;;;;;;5012014;28;20468;-86
2022/10/23 07:23:36;;;;;;;14.90;8.87;;;12.80;99.90;;;;;;5005593;28;20239;-84
2022/10/23 07:26:05;;;;;;;14.70;8.67;;;12.80;99.90;;;;;;5017373;28;20246;-85
2022/10/23 07:28:33;;;;;;;12.83;7.97;;;12.80;99.90;;;;;;5008509;28;20219;-82
2022/10/23 07:31:00;;;;;;;14.33;7.87;;;12.90;99.90;;;;;;5021187;28;20354;-81
2022/10/23 07:33:27;;;;;;;10.03;7.20;;;12.90;99.90;;;;;;4995256;28;20204;-85
2022/10/23 07:35:54;;;;;;;12.97;7.33;;;13.00;99.90;;;;;;4995764;28;20204;-84
2022/10/23 07:38:22;;;;;;;8.97;7.10;;;13.00;99.90;;;;;;4996833;28;20489;-83
2022/10/23 07:40:50;;;;;;;10.77;6.97;;;13.10;99.90;;;;;;4997164;28;20291;-84
2022/10/23 07:43:19;;;;;;;8.97;7.30;;;13.10;99.90;;;;;;4995995;28;20238;-84
2022/10/23 07:45:48;;;;;;;14.53;8.17;;;13.20;99.90;;;;;;4996835;28;20242;-86
2022/10/23 07:48:15;;;;;;;15.50;8.97;;;13.20;99.90;;;;;;4995924;28;20224;-81
2022/10/23 07:50:42;;;;;;;13.30;8.17;;;13.20;99.90;;;;;;4995913;28;20200;-85
2022/10/23 07:53:16;;;;;;;11.00;8.10;;;13.30;99.90;;;;;;4996748;28;20208;-82
2022/10/23 07:55:51;;;;;;;12.90;8.07;;;13.40;99.90;;;;;;4997176;28;20223;-84
2022/10/23 07:58:18;;;;;;;12.20;7.60;;;13.40;99.90;;;;;;4996522;28;20215;-84
2022/10/23 08:00:50;;;;;;;10.67;7.97;;;13.40;99.90;;;;;;4996572;28;20204;-84
2022/10/23 08:03:17;;;;;;;16.03;7.67;;;13.50;99.90;;;;;;4996787;28;20196;-86
2022/10/23 08:05:44;;;;;;;9.70;6.83;;;13.50;99.90;;;;;;4996179;28;20227;-84
2022/10/23 08:08:11;;;;;;;14.20;8.23;;;13.50;99.90;;;;;;4996466;28;20651;-85
2022/10/23 08:10:40;;;;;;;14.83;8.33;;;13.50;99.90;;;;;;5015640;28;20215;-84
2022/10/23 08:13:11;;;;;;;12.80;8.83;;;13.50;99.90;;;;;;5015858;28;20203;-84
2022/10/23 08:15:38;;;;;;;12.87;8.50;;;13.50;99.90;;;;;;4999399;28;20200;-84
2022/10/23 08:18:05;;;;;;;12.23;8.37;;;13.60;99.90;;;;;;5018968;22;20210;-85
2022/10/23 08:20:33;;;;;;;13.67;8.90;;;13.60;99.90;;;;;;5096306;28;20633;-84
2022/10/23 08:23:00;;;;;;;14.80;8.27;;;13.60;99.90;;;;;;5096316;28;20204;-86
2022/10/23 08:25:26;;;;;;;15.90;9.40;;;13.70;99.90;;;;;;5080497;28;20197;-84
2022/10/23 08:27:53;;;;;;;11.20;8.17;;;13.70;99.90;;;;;;5075664;28;20223;-85
2022/10/23 08:30:22;;;;;;;16.97;9.07;;;13.80;99.90;;;;;;5076259;28;20267;-84
2022/10/23 08:32:49;;;;;;;13.90;9.00;;;13.80;99.90;;;;;;5074942;28;20211;-83
2022/10/23 08:35:16;;;;;;;13.07;8.97;;;13.80;99.90;;;;;;5075490;28;20280;-82
2022/10/23 08:37:43;;;;;;;12.47;8.83;;;13.90;99.90;;;;;;5075576;28;20197;-82
2022/10/23 08:40:15;;;;;;;12.13;8.43;;;13.90;99.90;;;;;;5076106;28;20201;-82
2022/10/23 08:42:44;;;;;;;15.33;9.60;;;14.00;99.90;;;;;;5074974;28;20723;-82
2022/10/23 08:45:27;;;;;;;18.97;9.97;;;14.00;99.90;;;;;;5075020;28;20204;-81
2022/10/23 08:47:58;;;;;;;11.77;9.20;;;14.00;99.90;;;;;;5078039;28;20610;-83
2022/10/23 08:50:30;;;;;;;13.33;8.57;;;14.10;99.90;;;;;;5073435;28;20196;-82
2022/10/23 08:53:02;;;;;;;14.60;8.50;;;14.10;99.90;;;;;;5073147;28;20272;-80
2022/10/23 08:55:33;;;;;;;11.10;8.17;;;14.10;99.90;;;;;;5073718;28;20217;-83
2022/10/23 08:58:05;;;;;;;12.17;8.13;;;14.20;99.90;;;;;;5074116;28;20209;-83
2022/10/23 09:00:34;;;;;;;12.67;7.50;;;14.20;99.90;;;;;;5081498;28;20664;-82
2022/10/23 09:03:03;;;;;;;15.53;8.37;;;14.20;99.90;;;;;;5094071;28;20226;-82
2022/10/23 09:05:34;;;;;;;12.50;8.17;;;14.30;99.90;;;;;;5074413;28;20212;-83
2022/10/23 09:08:24;;;;;;;9.90;7.67;;;14.30;99.90;;;;;;5077095;28;20224;-84
2022/10/23 09:11:02;;;;;;;12.30;7.40;;;14.40;99.90;;;;;;5094481;28;20322;-83
2022/10/23 09:14:03;;;;;;;11.13;7.80;;;14.40;99.90;;;;;;5094140;28;20196;-82
2022/10/23 09:16:49;;;;;;;11.00;7.83;;;14.50;99.90;;;;;;5085151;28;20206;-82
2022/10/23 09:19:18;;;;;;;11.47;7.60;;;14.50;99.90;;;;;;5093021;28;20646;-84
2022/10/23 09:21:48;;;;;;;9.97;7.13;;;14.50;99.90;;;;;;5075053;28;20534;-83
2022/10/23 09:24:17;;;;;;;8.80;6.57;;;14.60;99.90;;;;;;5085465;28;20193;-82
2022/10/23 09:26:48;;;;;;;17.90;7.67;;;14.60;99.90;;;;;;5092127;28;20201;-84
2022/10/23 09:29:24;;;;;;;9.70;6.63;;;14.60;99.90;;;;;;5085003;28;20593;-84
2022/10/23 09:31:55;;;;;;;9.00;7.00;;;14.60;99.90;;;;;;5085508;28;20216;-84
2022/10/23 09:34:24;;;;;;;9.05;6.97;;;14.70;99.90;;;;;;5092300;28;20267;-82
2022/10/23 09:36:53;;;;;;;14.50;6.70;;;14.70;99.90;;;;;;5073837;28;20211;-82
2022/10/23 09:39:26;;;;;;;12.00;6.97;;;14.70;99.90;;;;;;5074510;28;20197;-83
2022/10/23 09:41:53;;;;;;;11.10;7.18;;;14.70;99.90;;;;;;5077314;28;20742;-82
2022/10/23 09:44:23;;;;;;;12.80;7.87;;;14.80;99.90;;;;;;5093322;28;20306;-83
2022/10/23 09:46:53;;;;;;;10.63;7.03;;;14.80;99.90;;;;;;5093979;28;20224;-82
2022/10/23 09:49:22;;;;;;;17.33;8.67;;;14.80;99.90;;;;;;5091790;28;20307;-84
2022/10/23 09:52:02;;;;;;;8.83;6.97;;;14.90;99.90;;;;;;5092348;28;20200;-81
2022/10/23 09:54:30;;;;;;;11.52;7.43;;;14.90;99.90;;;;;;5093720;28;20231;-82
2022/10/23 09:57:02;;;;;;;11.30;6.50;;;14.90;99.90;;;;;;5093205;28;20206;-81
2022/10/23 09:59:33;;;;;;;13.33;7.50;;;15.00;99.90;;;;;;5093787;28;20761;-82
2022/10/23 10:02:03;;;;;;;10.67;6.93;;;15.00;99.90;;;;;;5092385;28;20197;-83
2022/10/23 10:04:35;;;;;;;10.97;6.73;;;15.00;99.90;;;;;;5093798;28;20257;-84
2022/10/23 10:07:04;;;;;;;10.82;7.45;;;15.10;99.90;;;;;;5093852;28;20235;-82
2022/10/23 10:09:31;;;;;;;11.00;6.53;;;15.10;99.90;;;;;;5093603;28;20227;-83
2022/10/23 10:12:14;;;;;;;8.95;6.57;;;15.20;99.90;;;;;;5092053;28;20507;-83
2022/10/23 10:14:50;;;;;;;9.85;6.65;;;15.20;99.90;;;;;;5074399;28;20197;-83
2022/10/23 10:17:25;;;;;;;8.68;6.15;;;15.20;99.90;;;;;;5073406;28;20212;-82
2022/10/23 10:20:15;;;;;;;9.27;5.93;;;15.30;99.90;;;;;;5073579;28;20622;-81
2022/10/23 10:22:50;;;;;;;11.70;6.57;;;15.30;99.90;;;;;;5073413;28;20197;-83
2022/10/23 10:25:21;;;;;;;6.95;5.35;;;15.30;99.90;;;;;;5088870;28;20207;-83
2022/10/23 10:28:00;;;;;;;7.47;6.07;;;15.40;99.90;;;;;;5093623;28;20203;-82
2022/10/23 10:30:34;;;;;;;8.75;5.32;;;15.40;99.90;;;;;;5084239;28;20220;-82
2022/10/23 10:33:09;;;;;;;7.65;5.50;;;15.40;99.90;;;;;;5072567;28;20204;-81
2022/10/23 10:35:41;;;;;;;9.27;5.82;;;15.50;99.90;;;;;;5070923;28;20197;-82
2022/10/23 10:38:23;;;;;;;8.55;4.93;;;15.50;99.90;;;;;;5086413;28;20213;-83
2022/10/23 10:41:10;;;;;;;8.07;5.88;;;15.50;99.90;;;;;;5092846;28;20569;-82
2022/10/23 10:43:47;;;;;;;8.00;4.88;;;15.50;99.90;;;;;;5075592;28;20220;-82
2022/10/23 10:46:19;;;;;;;7.10;5.13;;;15.50;99.90;;;;;;5090526;28;20200;-81
2022/10/23 10:48:55;;;;;;;7.07;4.68;;;15.50;99.90;;;;;;5088456;28;20217;-82
2022/10/23 10:51:29;;;;;;;8.00;4.85;;;15.50;99.90;;;;;;5073684;28;20208;-83
2022/10/23 10:54:10;;;;;;;9.70;5.05;;;15.50;99.90;;;;;;5075397;28;20212;-81
2022/10/23 10:56:41;;;;;;;7.57;4.75;;;15.50;99.90;;;;;;5093852;28;20196;-84
2022/10/23 10:59:16;;;;;;;7.28;4.95;;;15.50;99.90;;;;;;5091225;28;20205;-82
2022/10/23 11:01:49;;;;;;;5.90;4.53;;;15.50;99.90;;;;;;5080177;28;20197;-85
2022/10/23 11:04:28;;;;;;;8.85;5.30;;;15.50;99.90;;;;;;5082780;28;20261;-85
2022/10/23 11:06:57;;;;;;;6.00;4.55;;;15.60;99.90;;;;;;5093744;28;20222;-86
2022/10/23 11:09:27;;;;;;;6.60;5.32;;;15.60;99.90;;;;;;5087571;28;20228;-84
2022/10/23 11:11:54;;;;;;;6.10;5.47;;;15.60;99.90;;;;;;5075559;28;20227;-85
2022/10/23 11:14:24;;;;;;;6.88;5.15;;;15.60;99.90;;;;;;5091910;28;20202;-81
2022/10/23 11:16:52;;;;;;;6.45;4.50;;;15.70;99.90;;;;;;5079999;28;20772;-80
2022/10/23 11:19:26;;;;;;;5.80;4.35;;;15.70;99.90;;;;;;5089010;28;20232;-80
2022/10/23 11:21:58;;;;;;;6.80;4.40;;;15.70;99.90;;;;;;5094162;28;20670;-80
2022/10/23 11:24:45;;;;;;;7.55;4.40;;;15.80;99.90;;;;;;5078340;28;20649;-82
2022/10/23 11:27:41;;;;;;;7.75;4.65;;;15.80;99.90;;;;;;5074804;28;20288;-80
2022/10/23 11:30:24;;;;;;;8.23;4.68;;;15.80;99.90;;;;;;5074952;28;20224;-81
2022/10/23 11:33:14;;;;;;;6.93;4.80;;;15.80;99.90;;;;;;5075833;28;20655;-81
2022/10/23 11:35:57;;;;;;;6.13;5.00;;;15.90;99.90;;;;;;5074792;28;20603;-82
2022/10/23 11:38:27;;;;;;;10.00;4.93;;;15.90;99.90;;;;;;5075525;28;20201;-80
2022/10/23 11:40:58;;;;;;;7.93;5.75;;;15.90;99.90;;;;;;5079907;28;20593;-81
2022/10/23 11:43:32;;;;;;;9.13;5.90;;;15.90;99.90;;;;;;5095079;28;20181;-82
2022/10/23 11:46:10;;;;;;;7.65;5.25;;;15.90;99.90;;;;;;5093580;28;20263;-80
2022/10/23 11:48:39;;;;;;;13.35;5.25;;;16.00;99.90;;;;;;5095954;28;20235;-81
2022/10/23 11:51:29;;;;;;;14.15;5.93;;;16.00;99.90;;;;;;5094439;28;20189;-82
2022/10/23 11:54:07;;;;;;;9.40;6.18;;;16.00;99.90;;;;;;5095587;28;20185;-80
2022/10/23 11:56:34;;;;;;;10.90;5.50;;;16.00;99.90;;;;;;5095109;28;20623;-79
2022/10/23 11:59:22;;;;;;;12.05;6.03;;;16.00;99.90;;;;;;5095636;28;20225;-84
2022/10/23 12:01:51;;;;;;;7.93;6.28;;;16.00;99.90;;;;;;5093154;28;20681;-82
2022/10/23 12:04:24;;;;;;;8.55;5.63;;;16.00;99.90;;;;;;5095073;28;20295;-81
2022/10/23 12:06:56;;;;;;;8.88;6.10;;;16.00;99.90;;;;;;5095438;28;20227;-81
2022/10/23 12:09:27;;;;;;;9.15;5.25;;;16.10;99.90;;;;;;5095205;28;20223;-83
2022/10/23 12:12:27;;;;;;;8.88;5.78;;;16.10;99.90;;;;;;5095220;28;20692;-84
2022/10/23 12:15:05;;;;;;;13.13;5.57;;;16.10;99.90;;;;;;5081773;28;20207;-84
2022/10/23 12:17:36;;;;;;;7.25;5.05;;;16.10;99.90;;;;;;5096279;28;20242;-85
2022/10/23 12:20:19;;;;;;;8.85;4.95;;;16.10;99.90;;;;;;5095430;28;20236;-81
2022/10/23 12:22:58;;;;;;;5.75;3.90;;;16.10;99.90;;;;;;5076176;28;20276;-84
2022/10/23 12:25:31;;;;;;;6.18;4.57;;;16.10;99.90;;;;;;5076193;28;20280;-81
2022/10/23 12:28:04;;;;;;;9.45;4.80;;;16.20;99.90;;;;;;5081417;28;20195;-82
2022/10/23 12:30:35;;;;;;;8.00;4.65;;;16.20;99.90;;;;;;5095567;28;20224;-85
2022/10/23 12:33:21;;;;;;;7.20;4.45;;;16.20;99.90;;;;;;5078054;28;20205;-81
2022/10/23 12:36:21;;;;;;;7.20;4.32;;;16.20;99.90;;;;;;5074969;28;20212;-82
2022/10/23 12:38:50;;;;;;;6.90;4.15;;;16.30;99.90;;;;;;5047886;28;20259;-80
2022/10/23 12:41:20;;;;;;;4.78;3.60;;;16.30;99.90;;;;;;5074840;28;20259;-81
2022/10/23 12:43:53;;;;;;;9.43;4.18;;;16.40;99.90;;;;;;5074654;28;20207;-80
2022/10/23 12:46:30;;;;;;;15.70;3.92;;;16.40;99.90;;;;;;5074147;28;20235;-83
2022/10/23 12:48:58;;;;;;;5.82;3.83;;;16.40;99.90;;;;;;5074446;28;20832;-83
2022/10/23 12:51:27;;;;;;;9.50;3.75;;;16.50;99.90;;;;;;5074538;28;20197;-80
2022/10/23 12:53:55;;;;;;;8.88;3.67;;;16.50;99.90;;;;;;5075049;28;20796;-82
2022/10/23 12:56:24;;;;;;;8.43;3.83;;;16.50;99.90;;;;;;5073951;28;20213;-80
2022/10/23 12:58:53;;;;;;;6.50;3.60;;;16.60;99.90;;;;;;5073657;28;20284;-83